sensor_id;sensor_type;location;lat;lon;timestamp;P1;durP1;ratioP1;P2;durP2;ratioP2
4812;SDS011;2420;51.202;8.698;2022-09-16T00:00:20;3.65;;;1.92;;
4812;SDS011;2420;51.202;8.698;2022-09-16T00:02:46;1.90;;;1.70;;
4812;SDS011;2420;51.202;8.698;2022-09-16T00:05:12;3.15;;;2.25;;
4812;SDS011;2420;51.202;8.698;2022-09-16T00:07:37;4.45;;;2.10;;
4812;SDS011;2420;51.202;8.698;2022-09-16T00:10:03;3.80;;;2.15;;
4812;SDS011;2420;51.202;8.698;2022-09-16T00:12:30;4.05;;;2.15;;
4812;SDS011;2420;51.202;8.698;2022-09-16T00:14:56;5.15;;;2.30;;
4812;SDS011;2420;51.202;8.698;2022-09-16T00:17:22;4.05;;;2.42;;
4812;SDS011;2420;51.202;8.698;2022-09-16T00:19:47;5.28;;;2.20;;
4812;SDS011;2420;51.202;8.698;2022-09-16T00:22:14;6.22;;;2.50;;
4812;SDS011;2420;51.202;8.698;2022-09-16T00:24:40;3.97;;;2.10;;
4812;SDS011;2420;51.202;8.698;2022-09-16T00:27:06;3.55;;;2.40;;
4812;SDS011;2420;51.202;8.698;2022-09-16T00:29:32;3.75;;;2.20;;
4812;SDS011;2420;51.202;8.698;2022-09-16T00:31:57;5.53;;;2.70;;
4812;SDS011;2420;51.202;8.698;2022-09-16T00:34:23;3.47;;;2.58;;
4812;SDS011;2420;51.202;8.698;2022-09-16T00:36:49;5.32;;;2.35;;
4812;SDS011;2420;51.202;8.698;2022-09-16T00:39:14;3.35;;;2.40;;
4812;SDS011;2420;51.202;8.698;2022-09-16T00:41:40;4.32;;;2.28;;
4812;SDS011;2420;51.202;8.698;2022-09-16T00:44:48;3.33;;;2.97;;
4812;SDS011;2420;51.202;8.698;2022-09-16T00:47:10;3.15;;;2.80;;
4812;SDS011;2420;51.202;8.698;2022-09-16T00:49:42;5.70;;;2.92;;
4812;SDS011;2420;51.202;8.698;2022-09-16T00:52:09;3.97;;;3.13;;
4812;SDS011;2420;51.202;8.698;2022-09-16T00:54:34;4.38;;;3.42;;
4812;SDS011;2420;51.202;8.698;2022-09-16T00:57:02;5.45;;;3.85;;
4812;SDS011;2420;51.202;8.698;2022-09-16T00:59:38;5.07;;;3.90;;
4812;SDS011;2420;51.202;8.698;2022-09-16T01:02:08;5.57;;;3.90;;
4812;SDS011;2420;51.202;8.698;2022-09-16T01:04:38;7.57;;;3.90;;
4812;SDS011;2420;51.202;8.698;2022-09-16T01:07:09;9.27;;;4.38;;
4812;SDS011;2420;51.202;8.698;2022-09-16T01:09:35;4.85;;;4.35;;
4812;SDS011;2420;51.202;8.698;2022-09-16T01:12:01;4.72;;;4.22;;
4812;SDS011;2420;51.202;8.698;2022-09-16T01:14:27;5.40;;;4.40;;
4812;SDS011;2420;51.202;8.698;2022-09-16T01:31:31;3.75;;;3.33;;
4812;SDS011;2420;51.202;8.698;2022-09-16T01:34:17;4.65;;;3.45;;
4812;SDS011;2420;51.202;8.698;2022-09-16T01:42:17;3.95;;;3.40;;
4812;SDS011;2420;51.202;8.698;2022-09-16T01:44:55;3.63;;;3.10;;
4812;SDS011;2420;51.202;8.698;2022-09-16T01:47:38;3.60;;;3.00;;
4812;SDS011;2420;51.202;8.698;2022-09-16T01:52:59;2.75;;;2.47;;
4812;SDS011;2420;51.202;8.698;2022-09-16T01:58:27;3.22;;;2.53;;
4812;SDS011;2420;51.202;8.698;2022-09-16T02:01:04;3.15;;;2.60;;
4812;SDS011;2420;51.202;8.698;2022-09-16T02:03:35;3.60;;;2.63;;
4812;SDS011;2420;51.202;8.698;2022-09-16T02:06:07;2.80;;;2.22;;
4812;SDS011;2420;51.202;8.698;2022-09-16T02:08:39;3.13;;;2.45;;
4812;SDS011;2420;51.202;8.698;2022-09-16T02:11:15;3.03;;;2.20;;
4812;SDS011;2420;51.202;8.698;2022-09-16T02:14:04;3.45;;;2.20;;
4812;SDS011;2420;51.202;8.698;2022-09-16T02:16:49;2.42;;;1.92;;
4812;SDS011;2420;51.202;8.698;2022-09-16T02:20:09;3.15;;;1.90;;
4812;SDS011;2420;51.202;8.698;2022-09-16T02:22:31;4.10;;;2.10;;
4812;SDS011;2420;51.202;8.698;2022-09-16T02:25:00;2.83;;;2.15;;
4812;SDS011;2420;51.202;8.698;2022-09-16T02:27:29;3.17;;;2.15;;
4812;SDS011;2420;51.202;8.698;2022-09-16T02:30:01;3.20;;;2.08;;
4812;SDS011;2420;51.202;8.698;2022-09-16T02:32:30;3.10;;;1.95;;
4812;SDS011;2420;51.202;8.698;2022-09-16T02:34:59;2.85;;;2.30;;
4812;SDS011;2420;51.202;8.698;2022-09-16T02:37:28;3.20;;;2.30;;
4812;SDS011;2420;51.202;8.698;2022-09-16T02:40:01;3.42;;;2.00;;
4812;SDS011;2420;51.202;8.698;2022-09-16T02:42:31;2.97;;;2.05;;
4812;SDS011;2420;51.202;8.698;2022-09-16T02:44:57;4.72;;;2.30;;
4812;SDS011;2420;51.202;8.698;2022-09-16T02:47:31;4.65;;;2.42;;
4812;SDS011;2420;51.202;8.698;2022-09-16T02:50:15;3.03;;;2.38;;
4812;SDS011;2420;51.202;8.698;2022-09-16T02:52:55;2.95;;;2.30;;
4812;SDS011;2420;51.202;8.698;2022-09-16T02:55:33;2.40;;;2.20;;
4812;SDS011;2420;51.202;8.698;2022-09-16T02:58:05;2.75;;;2.20;;
4812;SDS011;2420;51.202;8.698;2022-09-16T03:00:32;4.80;;;2.13;;
4812;SDS011;2420;51.202;8.698;2022-09-16T03:03:02;3.65;;;2.30;;
4812;SDS011;2420;51.202;8.698;2022-09-16T03:05:28;3.75;;;2.15;;
4812;SDS011;2420;51.202;8.698;2022-09-16T03:07:54;3.67;;;2.78;;
4812;SDS011;2420;51.202;8.698;2022-09-16T03:10:23;3.38;;;2.40;;
4812;SDS011;2420;51.202;8.698;2022-09-16T03:18:50;3.47;;;2.20;;
4812;SDS011;2420;51.202;8.698;2022-09-16T03:21:31;3.67;;;2.25;;
4812;SDS011;2420;51.202;8.698;2022-09-16T03:26:46;4.40;;;2.22;;
4812;SDS011;2420;51.202;8.698;2022-09-16T03:29:19;3.22;;;2.28;;
4812;SDS011;2420;51.202;8.698;2022-09-16T03:31:56;3.95;;;2.17;;
4812;SDS011;2420;51.202;8.698;2022-09-16T03:34:25;2.85;;;2.05;;
4812;SDS011;2420;51.202;8.698;2022-09-16T03:36:56;2.72;;;2.05;;
4812;SDS011;2420;51.202;8.698;2022-09-16T03:39:24;3.53;;;2.00;;
4812;SDS011;2420;51.202;8.698;2022-09-16T03:41:50;3.85;;;1.90;;
4812;SDS011;2420;51.202;8.698;2022-09-16T03:44:16;2.25;;;2.03;;
4812;SDS011;2420;51.202;8.698;2022-09-16T03:46:41;2.97;;;2.22;;
4812;SDS011;2420;51.202;8.698;2022-09-16T03:49:07;2.35;;;1.90;;
4812;SDS011;2420;51.202;8.698;2022-09-16T03:51:33;3.30;;;2.38;;
4812;SDS011;2420;51.202;8.698;2022-09-16T03:53:58;2.65;;;2.20;;
4812;SDS011;2420;51.202;8.698;2022-09-16T03:56:24;2.70;;;2.28;;
4812;SDS011;2420;51.202;8.698;2022-09-16T03:58:50;5.82;;;2.58;;
4812;SDS011;2420;51.202;8.698;2022-09-16T04:01:16;3.75;;;2.47;;
4812;SDS011;2420;51.202;8.698;2022-09-16T04:03:41;3.90;;;2.30;;
4812;SDS011;2420;51.202;8.698;2022-09-16T04:06:07;4.05;;;2.20;;
4812;SDS011;2420;51.202;8.698;2022-09-16T04:08:33;6.13;;;2.22;;
4812;SDS011;2420;51.202;8.698;2022-09-16T04:11:00;3.55;;;2.20;;
4812;SDS011;2420;51.202;8.698;2022-09-16T04:13:29;3.22;;;2.38;;
4812;SDS011;2420;51.202;8.698;2022-09-16T04:15:56;4.63;;;2.55;;
4812;SDS011;2420;51.202;8.698;2022-09-16T04:18:21;2.47;;;2.28;;
4812;SDS011;2420;51.202;8.698;2022-09-16T04:20:47;3.15;;;2.50;;
4812;SDS011;2420;51.202;8.698;2022-09-16T04:23:13;4.35;;;2.63;;
4812;SDS011;2420;51.202;8.698;2022-09-16T04:25:38;3.25;;;2.58;;
4812;SDS011;2420;51.202;8.698;2022-09-16T04:28:05;3.30;;;2.70;;
4812;SDS011;2420;51.202;8.698;2022-09-16T04:30:31;3.55;;;2.80;;
4812;SDS011;2420;51.202;8.698;2022-09-16T04:32:57;4.78;;;2.50;;
4812;SDS011;2420;51.202;8.698;2022-09-16T04:35:22;3.50;;;2.38;;
4812;SDS011;2420;51.202;8.698;2022-09-16T04:37:49;4.00;;;2.50;;
4812;SDS011;2420;51.202;8.698;2022-09-16T04:40:15;3.60;;;2.10;;
4812;SDS011;2420;51.202;8.698;2022-09-16T04:42:46;4.13;;;2.05;;
4812;SDS011;2420;51.202;8.698;2022-09-16T04:45:13;3.75;;;2.55;;
4812;SDS011;2420;51.202;8.698;2022-09-16T04:47:39;2.45;;;2.25;;
4812;SDS011;2420;51.202;8.698;2022-09-16T04:50:04;3.55;;;2.60;;
4812;SDS011;2420;51.202;8.698;2022-09-16T04:52:30;3.20;;;2.47;;
4812;SDS011;2420;51.202;8.698;2022-09-16T04:54:56;4.47;;;2.60;;
4812;SDS011;2420;51.202;8.698;2022-09-16T04:57:21;3.33;;;2.38;;
4812;SDS011;2420;51.202;8.698;2022-09-16T04:59:47;5.05;;;2.60;;
4812;SDS011;2420;51.202;8.698;2022-09-16T05:02:13;2.47;;;2.28;;
4812;SDS011;2420;51.202;8.698;2022-09-16T05:04:38;4.60;;;2.40;;
4812;SDS011;2420;51.202;8.698;2022-09-16T05:07:04;4.05;;;2.40;;
4812;SDS011;2420;51.202;8.698;2022-09-16T05:09:30;5.07;;;2.78;;
4812;SDS011;2420;51.202;8.698;2022-09-16T05:11:55;3.78;;;2.58;;
4812;SDS011;2420;51.202;8.698;2022-09-16T05:14:21;3.60;;;2.63;;
4812;SDS011;2420;51.202;8.698;2022-09-16T05:16:46;2.90;;;2.35;;
4812;SDS011;2420;51.202;8.698;2022-09-16T05:19:13;4.13;;;2.92;;
4812;SDS011;2420;51.202;8.698;2022-09-16T05:21:39;3.30;;;2.70;;
4812;SDS011;2420;51.202;8.698;2022-09-16T05:24:05;4.20;;;2.60;;
4812;SDS011;2420;51.202;8.698;2022-09-16T05:26:35;3.33;;;2.50;;
4812;SDS011;2420;51.202;8.698;2022-09-16T05:29:02;3.85;;;2.40;;
4812;SDS011;2420;51.202;8.698;2022-09-16T05:31:31;3.17;;;2.60;;
4812;SDS011;2420;51.202;8.698;2022-09-16T05:34:06;9.25;;;2.75;;
4812;SDS011;2420;51.202;8.698;2022-09-16T05:36:36;6.38;;;2.67;;
4812;SDS011;2420;51.202;8.698;2022-09-16T05:39:03;3.10;;;2.10;;
4812;SDS011;2420;51.202;8.698;2022-09-16T05:41:29;5.22;;;2.50;;
4812;SDS011;2420;51.202;8.698;2022-09-16T05:43:58;5.35;;;2.20;;
4812;SDS011;2420;51.202;8.698;2022-09-16T05:46:25;6.68;;;2.70;;
4812;SDS011;2420;51.202;8.698;2022-09-16T05:48:50;2.45;;;2.17;;
4812;SDS011;2420;51.202;8.698;2022-09-16T05:51:17;4.57;;;2.17;;
4812;SDS011;2420;51.202;8.698;2022-09-16T05:53:44;4.85;;;2.28;;
4812;SDS011;2420;51.202;8.698;2022-09-16T05:56:15;4.45;;;2.15;;
4812;SDS011;2420;51.202;8.698;2022-09-16T05:58:42;3.15;;;2.75;;
4812;SDS011;2420;51.202;8.698;2022-09-16T06:01:11;3.97;;;2.13;;
4812;SDS011;2420;51.202;8.698;2022-09-16T06:03:42;2.92;;;2.05;;
4812;SDS011;2420;51.202;8.698;2022-09-16T06:06:13;3.13;;;1.88;;
4812;SDS011;2420;51.202;8.698;2022-09-16T06:08:49;3.55;;;1.80;;
4812;SDS011;2420;51.202;8.698;2022-09-16T06:11:15;6.00;;;1.90;;
4812;SDS011;2420;51.202;8.698;2022-09-16T06:13:41;4.22;;;1.85;;
4812;SDS011;2420;51.202;8.698;2022-09-16T06:16:07;2.47;;;1.73;;
4812;SDS011;2420;51.202;8.698;2022-09-16T06:18:34;2.58;;;1.90;;
4812;SDS011;2420;51.202;8.698;2022-09-16T06:21:04;4.53;;;1.88;;
4812;SDS011;2420;51.202;8.698;2022-09-16T06:23:32;4.95;;;1.80;;
4812;SDS011;2420;51.202;8.698;2022-09-16T06:26:18;1.90;;;1.50;;
4812;SDS011;2420;51.202;8.698;2022-09-16T06:28:45;2.92;;;1.50;;
4812;SDS011;2420;51.202;8.698;2022-09-16T06:31:13;3.40;;;1.67;;
4812;SDS011;2420;51.202;8.698;2022-09-16T06:33:40;3.20;;;1.80;;
4812;SDS011;2420;51.202;8.698;2022-09-16T06:36:11;3.97;;;1.60;;
4812;SDS011;2420;51.202;8.698;2022-09-16T06:38:38;3.65;;;1.50;;
4812;SDS011;2420;51.202;8.698;2022-09-16T06:41:05;2.78;;;1.60;;
4812;SDS011;2420;51.202;8.698;2022-09-16T06:43:32;3.85;;;1.75;;
4812;SDS011;2420;51.202;8.698;2022-09-16T06:45:59;7.50;;;1.90;;
4812;SDS011;2420;51.202;8.698;2022-09-16T06:48:27;2.38;;;1.75;;
4812;SDS011;2420;51.202;8.698;2022-09-16T06:50:56;4.28;;;1.88;;
4812;SDS011;2420;51.202;8.698;2022-09-16T06:53:27;2.63;;;1.73;;
4812;SDS011;2420;51.202;8.698;2022-09-16T06:55:53;2.50;;;1.80;;
4812;SDS011;2420;51.202;8.698;2022-09-16T06:58:19;3.42;;;1.83;;
4812;SDS011;2420;51.202;8.698;2022-09-16T07:00:45;3.38;;;1.80;;
4812;SDS011;2420;51.202;8.698;2022-09-16T07:03:10;2.05;;;1.70;;
4812;SDS011;2420;51.202;8.698;2022-09-16T07:05:36;2.97;;;2.00;;
4812;SDS011;2420;51.202;8.698;2022-09-16T07:08:02;4.15;;;2.10;;
4812;SDS011;2420;51.202;8.698;2022-09-16T07:10:27;2.83;;;2.03;;
4812;SDS011;2420;51.202;8.698;2022-09-16T07:12:54;3.00;;;1.95;;
4812;SDS011;2420;51.202;8.698;2022-09-16T07:15:20;2.00;;;1.80;;
4812;SDS011;2420;51.202;8.698;2022-09-16T07:17:45;3.75;;;2.10;;
4812;SDS011;2420;51.202;8.698;2022-09-16T07:20:11;5.10;;;2.08;;
4812;SDS011;2420;51.202;8.698;2022-09-16T07:22:37;2.15;;;1.95;;
4812;SDS011;2420;51.202;8.698;2022-09-16T07:25:02;3.20;;;2.00;;
4812;SDS011;2420;51.202;8.698;2022-09-16T07:27:28;4.13;;;2.47;;
4812;SDS011;2420;51.202;8.698;2022-09-16T07:29:54;5.10;;;2.05;;
4812;SDS011;2420;51.202;8.698;2022-09-16T07:32:20;4.38;;;2.70;;
4812;SDS011;2420;51.202;8.698;2022-09-16T07:34:46;4.47;;;2.35;;
4812;SDS011;2420;51.202;8.698;2022-09-16T07:37:11;3.13;;;2.45;;
4812;SDS011;2420;51.202;8.698;2022-09-16T07:39:37;2.95;;;2.63;;
4812;SDS011;2420;51.202;8.698;2022-09-16T07:42:03;6.03;;;2.47;;
4812;SDS011;2420;51.202;8.698;2022-09-16T07:44:28;5.28;;;3.03;;
4812;SDS011;2420;51.202;8.698;2022-09-16T07:46:54;3.25;;;2.80;;
4812;SDS011;2420;51.202;8.698;2022-09-16T07:49:20;4.00;;;3.00;;
4812;SDS011;2420;51.202;8.698;2022-09-16T07:51:45;4.85;;;2.90;;
4812;SDS011;2420;51.202;8.698;2022-09-16T07:54:13;4.82;;;3.08;;
4812;SDS011;2420;51.202;8.698;2022-09-16T07:56:41;5.40;;;3.45;;
4812;SDS011;2420;51.202;8.698;2022-09-16T07:59:09;5.68;;;3.40;;
4812;SDS011;2420;51.202;8.698;2022-09-16T08:01:37;4.68;;;2.70;;
4812;SDS011;2420;51.202;8.698;2022-09-16T08:04:03;4.97;;;3.30;;
4812;SDS011;2420;51.202;8.698;2022-09-16T08:06:29;5.70;;;3.10;;
4812;SDS011;2420;51.202;8.698;2022-09-16T08:08:57;5.88;;;2.90;;
4812;SDS011;2420;51.202;8.698;2022-09-16T08:11:25;2.70;;;2.22;;
4812;SDS011;2420;51.202;8.698;2022-09-16T08:13:51;4.75;;;2.22;;
4812;SDS011;2420;51.202;8.698;2022-09-16T08:16:17;3.08;;;2.20;;
4812;SDS011;2420;51.202;8.698;2022-09-16T08:18:45;3.95;;;2.22;;
4812;SDS011;2420;51.202;8.698;2022-09-16T08:21:13;2.88;;;2.10;;
4812;SDS011;2420;51.202;8.698;2022-09-16T08:23:40;2.65;;;2.05;;
4812;SDS011;2420;51.202;8.698;2022-09-16T08:26:06;2.38;;;1.70;;
4812;SDS011;2420;51.202;8.698;2022-09-16T08:28:37;1.70;;;1.60;;
4812;SDS011;2420;51.202;8.698;2022-09-16T08:31:03;2.40;;;1.67;;
4812;SDS011;2420;51.202;8.698;2022-09-16T08:33:29;2.17;;;1.50;;
4812;SDS011;2420;51.202;8.698;2022-09-16T08:35:59;2.45;;;1.50;;
4812;SDS011;2420;51.202;8.698;2022-09-16T08:38:26;1.80;;;1.48;;
4812;SDS011;2420;51.202;8.698;2022-09-16T08:40:54;1.90;;;1.40;;
4812;SDS011;2420;51.202;8.698;2022-09-16T08:43:28;4.50;;;1.67;;
4812;SDS011;2420;51.202;8.698;2022-09-16T08:46:20;3.28;;;1.75;;
4812;SDS011;2420;51.202;8.698;2022-09-16T08:48:58;1.70;;;1.60;;
4812;SDS011;2420;51.202;8.698;2022-09-16T08:51:42;3.08;;;1.80;;
4812;SDS011;2420;51.202;8.698;2022-09-16T08:54:20;2.83;;;2.00;;
4812;SDS011;2420;51.202;8.698;2022-09-16T08:56:52;2.63;;;2.33;;
4812;SDS011;2420;51.202;8.698;2022-09-16T08:59:23;5.75;;;2.40;;
4812;SDS011;2420;51.202;8.698;2022-09-16T09:01:55;2.70;;;2.50;;
4812;SDS011;2420;51.202;8.698;2022-09-16T09:04:37;3.00;;;2.70;;
4812;SDS011;2420;51.202;8.698;2022-09-16T09:21:13;3.53;;;2.75;;
4812;SDS011;2420;51.202;8.698;2022-09-16T09:45:37;2.30;;;2.10;;
4812;SDS011;2420;51.202;8.698;2022-09-16T09:48:15;3.05;;;1.98;;
4812;SDS011;2420;51.202;8.698;2022-09-16T09:50:46;2.20;;;2.00;;
4812;SDS011;2420;51.202;8.698;2022-09-16T09:53:16;2.78;;;2.20;;
4812;SDS011;2420;51.202;8.698;2022-09-16T09:55:43;2.45;;;2.03;;
4812;SDS011;2420;51.202;8.698;2022-09-16T09:58:42;2.15;;;1.95;;
4812;SDS011;2420;51.202;8.698;2022-09-16T10:01:03;2.70;;;1.70;;
4812;SDS011;2420;51.202;8.698;2022-09-16T10:03:29;1.92;;;1.80;;
4812;SDS011;2420;51.202;8.698;2022-09-16T10:05:55;2.53;;;1.92;;
4812;SDS011;2420;51.202;8.698;2022-09-16T10:08:28;3.15;;;1.73;;
4812;SDS011;2420;51.202;8.698;2022-09-16T10:11:00;1.92;;;1.50;;
4812;SDS011;2420;51.202;8.698;2022-09-16T10:13:28;2.38;;;1.60;;
4812;SDS011;2420;51.202;8.698;2022-09-16T10:21:21;2.75;;;1.40;;
4812;SDS011;2420;51.202;8.698;2022-09-16T10:23:54;2.70;;;1.77;;
4812;SDS011;2420;51.202;8.698;2022-09-16T10:26:25;2.22;;;1.50;;
4812;SDS011;2420;51.202;8.698;2022-09-16T10:29:10;2.05;;;1.60;;
4812;SDS011;2420;51.202;8.698;2022-09-16T10:31:40;2.53;;;1.60;;
4812;SDS011;2420;51.202;8.698;2022-09-16T10:36:41;2.70;;;1.55;;
4812;SDS011;2420;51.202;8.698;2022-09-16T10:39:16;2.45;;;1.50;;
4812;SDS011;2420;51.202;8.698;2022-09-16T10:41:47;2.03;;;1.50;;
4812;SDS011;2420;51.202;8.698;2022-09-16T10:44:20;1.98;;;1.58;;
4812;SDS011;2420;51.202;8.698;2022-09-16T10:46:56;3.03;;;1.70;;
4812;SDS011;2420;51.202;8.698;2022-09-16T10:49:43;4.70;;;1.80;;
4812;SDS011;2420;51.202;8.698;2022-09-16T10:52:21;4.05;;;1.70;;
4812;SDS011;2420;51.202;8.698;2022-09-16T10:54:49;4.32;;;1.73;;
4812;SDS011;2420;51.202;8.698;2022-09-16T10:57:22;2.42;;;1.70;;
4812;SDS011;2420;51.202;8.698;2022-09-16T11:00:03;3.35;;;1.75;;
4812;SDS011;2420;51.202;8.698;2022-09-16T11:16:25;1.92;;;1.70;;
4812;SDS011;2420;51.202;8.698;2022-09-16T11:19:17;2.25;;;1.70;;
4812;SDS011;2420;51.202;8.698;2022-09-16T11:21:52;1.60;;;1.50;;
4812;SDS011;2420;51.202;8.698;2022-09-16T11:27:23;2.25;;;1.30;;
4812;SDS011;2420;51.202;8.698;2022-09-16T11:38:38;2.33;;;1.67;;
4812;SDS011;2420;51.202;8.698;2022-09-16T11:43:51;5.95;;;1.73;;
4812;SDS011;2420;51.202;8.698;2022-09-16T11:49:14;2.05;;;1.38;;
4812;SDS011;2420;51.202;8.698;2022-09-16T11:57:22;3.28;;;1.77;;
4812;SDS011;2420;51.202;8.698;2022-09-16T12:02:36;3.00;;;2.10;;
4812;SDS011;2420;51.202;8.698;2022-09-16T12:05:30;3.78;;;1.80;;
4812;SDS011;2420;51.202;8.698;2022-09-16T12:13:08;2.35;;;1.60;;
4812;SDS011;2420;51.202;8.698;2022-09-16T12:18:16;4.28;;;1.77;;
4812;SDS011;2420;51.202;8.698;2022-09-16T12:20:52;3.00;;;1.10;;
4812;SDS011;2420;51.202;8.698;2022-09-16T12:23:27;2.20;;;1.10;;
4812;SDS011;2420;51.202;8.698;2022-09-16T12:26:00;1.40;;;0.90;;
4812;SDS011;2420;51.202;8.698;2022-09-16T12:28:34;1.90;;;0.93;;
4812;SDS011;2420;51.202;8.698;2022-09-16T12:31:23;1.63;;;1.00;;
4812;SDS011;2420;51.202;8.698;2022-09-16T12:33:53;1.48;;;1.05;;
4812;SDS011;2420;51.202;8.698;2022-09-16T12:36:28;2.22;;;1.00;;
4812;SDS011;2420;51.202;8.698;2022-09-16T12:38:57;3.67;;;1.40;;
4812;SDS011;2420;51.202;8.698;2022-09-16T12:41:38;2.80;;;1.10;;
4812;SDS011;2420;51.202;8.698;2022-09-16T12:44:46;3.17;;;1.35;;
4812;SDS011;2420;51.202;8.698;2022-09-16T12:47:39;1.45;;;1.17;;
4812;SDS011;2420;51.202;8.698;2022-09-16T13:01:16;1.33;;;1.10;;
4812;SDS011;2420;51.202;8.698;2022-09-16T13:03:51;1.23;;;0.93;;
4812;SDS011;2420;51.202;8.698;2022-09-16T13:08:51;2.45;;;0.90;;
4812;SDS011;2420;51.202;8.698;2022-09-16T13:11:26;0.80;;;0.80;;
4812;SDS011;2420;51.202;8.698;2022-09-16T13:13:57;1.33;;;0.73;;
4812;SDS011;2420;51.202;8.698;2022-09-16T13:16:33;2.75;;;1.00;;
4812;SDS011;2420;51.202;8.698;2022-09-16T13:21:54;2.40;;;0.88;;
4812;SDS011;2420;51.202;8.698;2022-09-16T13:24:45;1.00;;;0.90;;
4812;SDS011;2420;51.202;8.698;2022-09-16T13:27:32;2.10;;;0.90;;
4812;SDS011;2420;51.202;8.698;2022-09-16T13:30:11;1.92;;;0.80;;
4812;SDS011;2420;51.202;8.698;2022-09-16T13:32:41;2.65;;;1.00;;
4812;SDS011;2420;51.202;8.698;2022-09-16T13:37:48;1.45;;;0.98;;
4812;SDS011;2420;51.202;8.698;2022-09-16T13:40:20;1.98;;;1.00;;
4812;SDS011;2420;51.202;8.698;2022-09-16T13:42:48;1.63;;;1.02;;
4812;SDS011;2420;51.202;8.698;2022-09-16T13:45:37;1.73;;;0.90;;
4812;SDS011;2420;51.202;8.698;2022-09-16T13:48:08;2.28;;;1.15;;
4812;SDS011;2420;51.202;8.698;2022-09-16T13:50:40;1.83;;;1.10;;
4812;SDS011;2420;51.202;8.698;2022-09-16T13:53:43;2.80;;;1.10;;
4812;SDS011;2420;51.202;8.698;2022-09-16T13:56:07;1.75;;;1.10;;
4812;SDS011;2420;51.202;8.698;2022-09-16T14:04:34;2.65;;;0.98;;
4812;SDS011;2420;51.202;8.698;2022-09-16T14:14:44;2.67;;;0.90;;
4812;SDS011;2420;51.202;8.698;2022-09-16T14:17:18;1.65;;;0.82;;
4812;SDS011;2420;51.202;8.698;2022-09-16T14:19:47;3.15;;;1.00;;
4812;SDS011;2420;51.202;8.698;2022-09-16T14:22:16;1.55;;;0.77;;
4812;SDS011;2420;51.202;8.698;2022-09-16T14:24:45;1.48;;;0.82;;
4812;SDS011;2420;51.202;8.698;2022-09-16T14:27:19;1.00;;;0.70;;
4812;SDS011;2420;51.202;8.698;2022-09-16T14:29:57;2.05;;;0.80;;
4812;SDS011;2420;51.202;8.698;2022-09-16T14:32:29;1.10;;;0.70;;
4812;SDS011;2420;51.202;8.698;2022-09-16T14:34:58;3.55;;;1.00;;
4812;SDS011;2420;51.202;8.698;2022-09-16T14:37:28;0.77;;;0.77;;
4812;SDS011;2420;51.202;8.698;2022-09-16T14:40:00;2.30;;;0.90;;
4812;SDS011;2420;51.202;8.698;2022-09-16T14:42:29;2.60;;;1.08;;
4812;SDS011;2420;51.202;8.698;2022-09-16T14:44:55;1.38;;;0.82;;
4812;SDS011;2420;51.202;8.698;2022-09-16T14:47:23;1.50;;;0.98;;
4812;SDS011;2420;51.202;8.698;2022-09-16T14:50:04;4.65;;;1.13;;
4812;SDS011;2420;51.202;8.698;2022-09-16T14:52:51;3.83;;;1.13;;
4812;SDS011;2420;51.202;8.698;2022-09-16T14:55:28;5.18;;;1.20;;
4812;SDS011;2420;51.202;8.698;2022-09-16T14:57:55;1.25;;;0.90;;
4812;SDS011;2420;51.202;8.698;2022-09-16T15:00:23;3.00;;;1.00;;
4812;SDS011;2420;51.202;8.698;2022-09-16T15:03:08;1.52;;;0.90;;
4812;SDS011;2420;51.202;8.698;2022-09-16T15:05:38;1.35;;;0.90;;
4812;SDS011;2420;51.202;8.698;2022-09-16T15:08:20;5.13;;;1.05;;
4812;SDS011;2420;51.202;8.698;2022-09-16T15:10:52;1.95;;;0.90;;
4812;SDS011;2420;51.202;8.698;2022-09-16T15:13:21;2.05;;;1.00;;
4812;SDS011;2420;51.202;8.698;2022-09-16T15:15:53;4.53;;;1.00;;
4812;SDS011;2420;51.202;8.698;2022-09-16T15:18:22;1.60;;;1.02;;
4812;SDS011;2420;51.202;8.698;2022-09-16T15:20:56;4.30;;;1.23;;
4812;SDS011;2420;51.202;8.698;2022-09-16T15:23:32;1.55;;;1.05;;
4812;SDS011;2420;51.202;8.698;2022-09-16T15:26:04;3.72;;;1.10;;
4812;SDS011;2420;51.202;8.698;2022-09-16T15:28:32;3.05;;;1.23;;
4812;SDS011;2420;51.202;8.698;2022-09-16T15:30:58;2.10;;;0.93;;
4812;SDS011;2420;51.202;8.698;2022-09-16T15:33:25;3.15;;;1.02;;
4812;SDS011;2420;51.202;8.698;2022-09-16T15:35:56;2.38;;;1.05;;
4812;SDS011;2420;51.202;8.698;2022-09-16T15:38:22;6.43;;;1.00;;
4812;SDS011;2420;51.202;8.698;2022-09-16T15:40:58;3.78;;;1.00;;
4812;SDS011;2420;51.202;8.698;2022-09-16T15:43:39;4.60;;;1.20;;
4812;SDS011;2420;51.202;8.698;2022-09-16T15:46:21;2.58;;;1.20;;
4812;SDS011;2420;51.202;8.698;2022-09-16T15:48:57;3.20;;;1.08;;
4812;SDS011;2420;51.202;8.698;2022-09-16T15:51:32;5.15;;;1.45;;
4812;SDS011;2420;51.202;8.698;2022-09-16T15:54:20;5.57;;;1.40;;
4812;SDS011;2420;51.202;8.698;2022-09-16T15:59:24;2.20;;;1.10;;
4812;SDS011;2420;51.202;8.698;2022-09-16T16:01:53;1.90;;;1.05;;
4812;SDS011;2420;51.202;8.698;2022-09-16T16:04:24;1.52;;;1.00;;
4812;SDS011;2420;51.202;8.698;2022-09-16T16:07:01;1.77;;;0.77;;
4812;SDS011;2420;51.202;8.698;2022-09-16T16:09:29;1.17;;;0.95;;
4812;SDS011;2420;51.202;8.698;2022-09-16T16:12:03;4.32;;;1.15;;
4812;SDS011;2420;51.202;8.698;2022-09-16T16:14:32;3.45;;;1.00;;
4812;SDS011;2420;51.202;8.698;2022-09-16T16:17:12;1.63;;;1.30;;
4812;SDS011;2420;51.202;8.698;2022-09-16T16:19:40;2.40;;;1.10;;
4812;SDS011;2420;51.202;8.698;2022-09-16T16:22:06;2.38;;;1.10;;
4812;SDS011;2420;51.202;8.698;2022-09-16T16:24:32;1.67;;;1.00;;
4812;SDS011;2420;51.202;8.698;2022-09-16T16:26:58;4.82;;;1.23;;
4812;SDS011;2420;51.202;8.698;2022-09-16T16:29:24;3.50;;;1.17;;
4812;SDS011;2420;51.202;8.698;2022-09-16T16:31:56;4.28;;;1.23;;
4812;SDS011;2420;51.202;8.698;2022-09-16T16:34:26;2.05;;;0.90;;
4812;SDS011;2420;51.202;8.698;2022-09-16T16:36:52;4.35;;;1.10;;
4812;SDS011;2420;51.202;8.698;2022-09-16T16:39:18;2.78;;;1.40;;
4812;SDS011;2420;51.202;8.698;2022-09-16T16:41:44;1.50;;;0.88;;
4812;SDS011;2420;51.202;8.698;2022-09-16T16:44:10;3.28;;;1.30;;
4812;SDS011;2420;51.202;8.698;2022-09-16T16:46:35;2.72;;;1.33;;
4812;SDS011;2420;51.202;8.698;2022-09-16T16:49:01;2.20;;;1.13;;
4812;SDS011;2420;51.202;8.698;2022-09-16T16:51:27;3.15;;;1.00;;
4812;SDS011;2420;51.202;8.698;2022-09-16T16:53:52;1.55;;;0.90;;
4812;SDS011;2420;51.202;8.698;2022-09-16T16:56:18;2.78;;;1.10;;
4812;SDS011;2420;51.202;8.698;2022-09-16T16:58:44;2.22;;;1.05;;
4812;SDS011;2420;51.202;8.698;2022-09-16T17:01:10;1.45;;;0.90;;
4812;SDS011;2420;51.202;8.698;2022-09-16T17:03:38;1.85;;;0.98;;
4812;SDS011;2420;51.202;8.698;2022-09-16T17:06:04;3.88;;;1.00;;
4812;SDS011;2420;51.202;8.698;2022-09-16T17:08:31;3.50;;;1.35;;
4812;SDS011;2420;51.202;8.698;2022-09-16T17:11:04;3.40;;;1.30;;
4812;SDS011;2420;51.202;8.698;2022-09-16T17:13:30;2.20;;;1.10;;
4812;SDS011;2420;51.202;8.698;2022-09-16T17:15:55;1.55;;;1.15;;
4812;SDS011;2420;51.202;8.698;2022-09-16T17:18:21;3.17;;;1.30;;
4812;SDS011;2420;51.202;8.698;2022-09-16T17:20:46;2.72;;;1.65;;
4812;SDS011;2420;51.202;8.698;2022-09-16T17:23:12;2.67;;;1.23;;
4812;SDS011;2420;51.202;8.698;2022-09-16T17:25:37;2.25;;;1.40;;
4812;SDS011;2420;51.202;8.698;2022-09-16T17:28:03;2.85;;;1.50;;
4812;SDS011;2420;51.202;8.698;2022-09-16T17:30:29;2.53;;;1.27;;
4812;SDS011;2420;51.202;8.698;2022-09-16T17:32:54;2.92;;;1.80;;
4812;SDS011;2420;51.202;8.698;2022-09-16T17:35:20;5.55;;;2.30;;
4812;SDS011;2420;51.202;8.698;2022-09-16T17:37:45;2.67;;;1.73;;
4812;SDS011;2420;51.202;8.698;2022-09-16T17:40:11;3.92;;;2.10;;
4812;SDS011;2420;51.202;8.698;2022-09-16T17:42:36;3.95;;;2.30;;
4812;SDS011;2420;51.202;8.698;2022-09-16T17:45:02;2.63;;;1.90;;
4812;SDS011;2420;51.202;8.698;2022-09-16T17:47:30;2.45;;;2.08;;
4812;SDS011;2420;51.202;8.698;2022-09-16T17:49:57;5.88;;;3.03;;
4812;SDS011;2420;51.202;8.698;2022-09-16T17:52:23;13.35;;;5.57;;
4812;SDS011;2420;51.202;8.698;2022-09-16T17:54:49;5.15;;;3.28;;
4812;SDS011;2420;51.202;8.698;2022-09-16T17:57:14;6.93;;;4.68;;
4812;SDS011;2420;51.202;8.698;2022-09-16T17:59:40;3.33;;;2.50;;
4812;SDS011;2420;51.202;8.698;2022-09-16T18:02:07;3.63;;;2.33;;
4812;SDS011;2420;51.202;8.698;2022-09-16T18:04:33;3.47;;;2.08;;
4812;SDS011;2420;51.202;8.698;2022-09-16T18:06:58;6.30;;;3.20;;
4812;SDS011;2420;51.202;8.698;2022-09-16T18:09:24;3.22;;;2.67;;
4812;SDS011;2420;51.202;8.698;2022-09-16T18:11:50;4.30;;;2.28;;
4812;SDS011;2420;51.202;8.698;2022-09-16T18:14:15;3.53;;;2.50;;